Newvida — V7KQ7 — position and weather

sailwx.info

Track history (hours):
 
Tides and Currents Weather Stations Pressure Air Temp Water Temp Dewpoint Dewpoint Depression Visibility Wind Speed Wind Dir Waves Ship Positions

Newvida

Last reported at 2017-Apr-23 19:15 UTC. Time now 2017-Apr-29 23:09 UTC.
Position N 18°32' W 064°21'.

Length 56 m; draft 2.4 m.

Type: Pleasure craft. MMSI: 538080049.

Date/timePositionNaut miles runAvg speedWind from/ knotsBaromVisibWave heightAir tempDewpointWater temp
2017-Apr-23 19:15N 18°32' W 064°21'8 9.4
2017-Apr-23 18:25N 18°32' W 064°29'12 9.0
2017-Apr-23 17:06N 18°27' W 064°40'1 7.0
2017-Apr-23 17:00N 18°26' W 064°41'3 6.9
2017-Apr-23 16:30N 18°24' W 064°43'1 1.3
2017-Apr-23 16:00N 18°23' W 064°43'0 0.0
2017-Apr-23 15:30N 18°23' W 064°43'0 0.1
2017-Apr-23 15:00N 18°23' W 064°43'0 0.0
2017-Apr-23 14:00N 18°23' W 064°43'0 0.0
2017-Apr-23 13:30N 18°23' W 064°43'0 0.1
2017-Apr-23 13:00N 18°23' W 064°43'2 4.4
2017-Apr-23 12:30N 18°22' W 064°41'510.8
2017-Apr-23 12:00N 18°20' W 064°35'0 1.0
2017-Apr-23 11:30N 18°21' W 064°35'0 0.0
2017-Apr-23 10:56N 18°21' W 064°35'0 0.0
2017-Apr-23 10:23N 18°21' W 064°35'0 0.0
2017-Apr-23 10:00N 18°21' W 064°35'0 0.0
2017-Apr-23 09:30N 18°21' W 064°35'0 0.0
2017-Apr-23 09:00N 18°21' W 064°35'0 0.0
2017-Apr-23 08:30N 18°21' W 064°35'0 0.0
2017-Apr-23 08:00N 18°21' W 064°35'0 0.0
2017-Apr-23 07:30N 18°21' W 064°35'0 0.0
2017-Apr-23 07:00N 18°21' W 064°35'0 0.0
2017-Apr-23 06:30N 18°21' W 064°35'0 0.0
2017-Apr-23 06:00N 18°21' W 064°35'0 0.0
2017-Apr-23 05:30N 18°21' W 064°35'0 0.0
2017-Apr-23 05:00N 18°21' W 064°35'0 0.1
2017-Apr-23 04:23N 18°21' W 064°35'6410.9
2017-Apr-22 22:28N 18°06' W 063°29'611.6
2017-Apr-22 21:56N 18°05' W 063°22'611.7
2017-Apr-22 21:27N 18°04' W 063°17'611.5
2017-Apr-22 20:57N 18°03' W 063°11'4 8.8
2017-Apr-22 20:30N 18°02' W 063°06'1 1.6
2017-Apr-22 19:58N 18°02' W 063°06'0 0.1
2017-Apr-22 19:28N 18°02' W 063°06'0 0.0
2017-Apr-22 18:58N 18°02' W 063°06'0 0.0
2017-Apr-22 18:28N 18°02' W 063°06'0 0.0
2017-Apr-22 17:58N 18°02' W 063°06'0 0.0
2017-Apr-22 17:28N 18°02' W 063°06'0 0.0
2017-Apr-22 16:58N 18°02' W 063°06'0 0.0
2017-Apr-22 16:28N 18°02' W 063°06'0 0.0
2017-Apr-22 15:46N 18°02' W 063°06'0 0.0
2017-Apr-22 15:04N 18°02' W 063°06'0 0.0
2017-Apr-22 14:52N 18°02' W 063°06'0 0.0
2017-Apr-22 14:22N 18°02' W 063°06'0 0.0
2017-Apr-22 13:22N 18°02' W 063°06'0 0.0
2017-Apr-22 12:52N 18°02' W 063°06'0 0.0
2017-Apr-22 12:22N 18°02' W 063°06'0 0.0
2017-Apr-22 11:55N 18°02' W 063°06'0 0.0
2017-Apr-22 11:22N 18°02' W 063°06'0 0.0
2017-Apr-22 10:55N 18°02' W 063°06'0 0.0
2017-Apr-22 10:25N 18°02' W 063°06'0 0.0
2017-Apr-22 09:55N 18°02' W 063°06'0 0.0
2017-Apr-22 09:25N 18°02' W 063°06'0 0.0
2017-Apr-22 08:58N 18°02' W 063°06'0 0.0
2017-Apr-22 08:28N 18°02' W 063°06'0 0.0
2017-Apr-22 07:58N 18°02' W 063°06'0 0.0
2017-Apr-22 07:28N 18°02' W 063°06'0 0.0
2017-Apr-22 06:55N 18°02' W 063°06'0 0.0
2017-Apr-22 06:28N 18°02' W 063°06'0 0.0
2017-Apr-22 05:58N 18°02' W 063°06'0 0.0
2017-Apr-22 05:28N 18°02' W 063°06'0 0.0
2017-Apr-22 04:43N 18°02' W 063°06'0 0.0
2017-Apr-22 04:28N 18°02' W 063°06'0 0.0
2017-Apr-22 03:58N 18°02' W 063°06'0 0.0
2017-Apr-22 03:28N 18°02' W 063°06'0 0.0
2017-Apr-22 02:58N 18°02' W 063°06'0 0.0
2017-Apr-22 02:28N 18°02' W 063°06'0 0.0
2017-Apr-22 01:49N 18°02' W 063°06'0 0.0
2017-Apr-22 01:19N 18°02' W 063°06'0 0.0
2017-Apr-22 00:52N 18°02' W 063°06'0 0.0
2017-Apr-22 00:22N 18°02' W 063°06'0 0.0
2017-Apr-21 23:52N 18°02' W 063°06'0 0.0
2017-Apr-21 23:22N 18°02' W 063°06'0 0.0
2017-Apr-21 22:52N 18°02' W 063°06'0 0.0
2017-Apr-21 22:22N 18°02' W 063°06'0 0.0
2017-Apr-21 21:55N 18°02' W 063°06'0 0.0
2017-Apr-21 21:25N 18°02' W 063°06'0 0.0
2017-Apr-21 20:55N 18°02' W 063°06'0 0.0
2017-Apr-21 20:25N 18°02' W 063°06'0 0.0
2017-Apr-21 19:55N 18°02' W 063°06'0 0.0
2017-Apr-21 19:28N 18°02' W 063°06'0 0.0
2017-Apr-21 18:58N 18°02' W 063°06'0 0.0
2017-Apr-21 18:25N 18°02' W 063°06'0 0.0
2017-Apr-21 17:58N 18°02' W 063°06'0 0.0
2017-Apr-21 17:28N 18°02' W 063°06'0 0.0
2017-Apr-21 16:58N 18°02' W 063°06'0 0.0
2017-Apr-21 16:28N 18°02' W 063°06'0 0.0
2017-Apr-21 15:58N 18°02' W 063°06'0 0.0
2017-Apr-21 15:28N 18°02' W 063°06'0 0.0
2017-Apr-21 14:58N 18°02' W 063°06'0 0.0
2017-Apr-21 14:28N 18°02' W 063°06'0 0.0
2017-Apr-21 13:28N 18°02' W 063°06'0 0.0
2017-Apr-21 12:58N 18°02' W 063°06'0 0.0
2017-Apr-21 12:04N 18°02' W 063°06'0 0.0
2017-Apr-21 11:49N 18°02' W 063°06'0 0.0
2017-Apr-21 11:19N 18°02' W 063°06'0 0.0
2017-Apr-21 10:52N 18°02' W 063°06'0 0.0
2017-Apr-21 10:22N 18°02' W 063°06'0 0.0
2017-Apr-21 09:52N 18°02' W 063°06'0 0.0
2017-Apr-21 09:22N 18°02' W 063°06'0 0.0
2017-Apr-21 08:52N 18°02' W 063°06'0 0.0
2017-Apr-21 08:22N 18°02' W 063°06'0 0.0
2017-Apr-21 07:49N 18°02' W 063°06'0 0.0
2017-Apr-21 07:25N 18°02' W 063°06'0 0.0
2017-Apr-21 06:55N 18°02' W 063°06'0 0.0
2017-Apr-21 06:25N 18°02' W 063°06'0 0.0
2017-Apr-21 05:55N 18°02' W 063°06'0 0.0
2017-Apr-21 05:28N 18°02' W 063°06'0 0.0
2017-Apr-21 04:58N 18°02' W 063°06'0 0.0
2017-Apr-21 04:25N 18°02' W 063°06'0 0.0
2017-Apr-21 03:58N 18°02' W 063°06'0 0.0
2017-Apr-21 03:28N 18°02' W 063°06'0 0.0
2017-Apr-21 02:58N 18°02' W 063°06'0 0.0
2017-Apr-21 02:28N 18°02' W 063°06'0 0.0
2017-Apr-21 01:58N 18°02' W 063°06'0 0.0
2017-Apr-21 01:28N 18°02' W 063°06'0 0.0
2017-Apr-21 00:58N 18°02' W 063°06'0 0.0
2017-Apr-21 00:16N 18°02' W 063°06'0 0.0
2017-Apr-20 23:49N 18°02' W 063°06'0 0.0
2017-Apr-20 23:28N 18°02' W 063°06'0 0.0
2017-Apr-20 22:58N 18°02' W 063°06'0 0.0
2017-Apr-20 22:19N 18°02' W 063°06'0 0.0
2017-Apr-20 21:49N 18°02' W 063°06'0 0.0
2017-Apr-20 21:16N 18°02' W 063°06'0 0.0
2017-Apr-20 20:52N 18°02' W 063°06'0 0.0
2017-Apr-20 20:22N 18°02' W 063°06'0 0.0
2017-Apr-20 19:52N 18°02' W 063°06'0 0.0
2017-Apr-20 19:07N 18°02' W 063°06'0 0.0
2017-Apr-20 18:49N 18°02' W 063°06'0 0.0
2017-Apr-20 18:25N 18°02' W 063°06'0 0.0
2017-Apr-20 17:55N 18°02' W 063°06'0 0.0
2017-Apr-20 17:25N 18°02' W 063°06'0 0.0
2017-Apr-20 16:55N 18°02' W 063°06'0 0.0
2017-Apr-20 16:25N 18°02' W 063°06'0 0.0
2017-Apr-20 15:55N 18°02' W 063°06'0 0.0
2017-Apr-20 15:28N 18°02' W 063°06'0 0.0
2017-Apr-20 14:58N 18°02' W 063°06'0 0.0
2017-Apr-20 13:58N 18°02' W 063°06'0 0.0
2017-Apr-20 13:28N 18°02' W 063°06'0 0.0
2017-Apr-20 12:58N 18°02' W 063°06'0 0.0
2017-Apr-20 12:25N 18°02' W 063°06'0 0.0
2017-Apr-20 11:58N 18°02' W 063°06'0 0.0
2017-Apr-20 11:16N 18°02' W 063°06'0 0.0
2017-Apr-20 10:46N 18°02' W 063°06'0 0.0
2017-Apr-20 10:28N 18°02' W 063°06'0 0.0
2017-Apr-20 09:58N 18°02' W 063°06'0 0.0
2017-Apr-20 09:28N 18°02' W 063°06'0 0.0
2017-Apr-20 08:58N 18°02' W 063°06'0 0.0
2017-Apr-20 08:01N 18°02' W 063°06'0 0.0
2017-Apr-20 07:49N 18°02' W 063°06'0 0.0
2017-Apr-20 07:19N 18°02' W 063°06'0 0.0
2017-Apr-20 06:52N 18°02' W 063°06'0 0.0
2017-Apr-20 06:22N 18°02' W 063°06'0 0.0
2017-Apr-20 05:22N 18°02' W 063°06'0 0.0
2017-Apr-20 04:49N 18°02' W 063°06'0 0.0
2017-Apr-20 04:22N 18°02' W 063°06'0 0.0
2017-Apr-20 03:55N 18°02' W 063°06'0 0.0
2017-Apr-20 03:25N 18°02' W 063°06'0 0.0
2017-Apr-20 02:55N 18°02' W 063°06'0 0.0
2017-Apr-20 02:25N 18°02' W 063°06'0 0.0
2017-Apr-20 01:52N 18°02' W 063°06'0 0.0
2017-Apr-20 01:28N 18°02' W 063°06'0 0.0
2017-Apr-20 00:58N 18°02' W 063°06'0 0.0
2017-Apr-20 00:28N 18°02' W 063°06'0 0.0
2017-Apr-19 23:13N 18°02' W 063°06'0 0.0
2017-Apr-19 22:58N 18°02' W 063°06'0 0.0
2017-Apr-19 22:13N 18°02' W 063°06'0 0.0
2017-Apr-19 21:58N 18°02' W 063°06'0 0.0
2017-Apr-19 21:28N 18°02' W 063°06'0 0.0
2017-Apr-19 20:58N 18°02' W 063°06'0 0.0
2017-Apr-19 20:28N 18°02' W 063°06'0 0.0
2017-Apr-19 19:58N 18°02' W 063°06'0 0.0
2017-Apr-19 19:28N 18°02' W 063°06'0 0.0
2017-Apr-19 18:58N 18°02' W 063°06'0 0.0
2017-Apr-19 18:04N 18°02' W 063°06'0 0.0
2017-Apr-19 17:49N 18°02' W 063°06'0 0.0
2017-Apr-19 17:19N 18°02' W 063°06'0 0.0
2017-Apr-19 16:49N 18°02' W 063°06'0 0.0
2017-Apr-19 16:22N 18°02' W 063°06'0 0.0
2017-Apr-19 15:52N 18°02' W 063°06'0 0.0
2017-Apr-19 15:22N 18°02' W 063°06'0 0.0
2017-Apr-19 14:52N 18°02' W 063°06'0 0.0
2017-Apr-19 14:25N 18°02' W 063°06'0 0.0
2017-Apr-19 13:55N 18°02' W 063°06'0 0.0
2017-Apr-19 13:25N 18°02' W 063°06'0 0.0
2017-Apr-19 12:55N 18°02' W 063°06'0 0.0
2017-Apr-19 12:25N 18°02' W 063°06'0 0.0
2017-Apr-19 11:52N 18°02' W 063°06'0 0.0
2017-Apr-19 11:28N 18°02' W 063°06'0 0.0
2017-Apr-19 10:58N 18°02' W 063°06'0 0.0
2017-Apr-19 10:28N 18°02' W 063°06'0 0.0
2017-Apr-19 09:58N 18°02' W 063°06'0 0.0
2017-Apr-19 09:28N 18°02' W 063°06'0 0.0
2017-Apr-19 08:58N 18°02' W 063°06'0 0.0
2017-Apr-19 08:28N 18°02' W 063°06'0 0.0
2017-Apr-19 07:58N 18°02' W 063°06'0 0.0
2017-Apr-19 07:28N 18°02' W 063°06'0 0.0
2017-Apr-19 06:31N 18°02' W 063°06'0 0.0
2017-Apr-19 06:28N 18°02' W 063°06'0 0.0
2017-Apr-19 05:58N 18°02' W 063°06'0 0.0
2017-Apr-19 05:28N 18°02' W 063°06'0 0.0
2017-Apr-19 04:58N 18°02' W 063°06'0 0.0
2017-Apr-19 04:19N 18°02' W 063°06'0 0.0
2017-Apr-19 03:46N 18°02' W 063°06'0 0.0
2017-Apr-19 03:19N 18°02' W 063°06'0 0.0
2017-Apr-19 02:52N 18°02' W 063°06'0 0.0
2017-Apr-19 02:22N 18°02' W 063°06'0 0.0
2017-Apr-19 01:52N 18°02' W 063°06'0 0.0
2017-Apr-19 01:22N 18°02' W 063°06'0 0.0
2017-Apr-19 00:52N 18°02' W 063°06'0 0.0
2017-Apr-19 00:25N 18°02' W 063°06'0 0.0
2017-Apr-18 23:55N 18°02' W 063°06'0 0.0
2017-Apr-18 23:22N 18°02' W 063°06'0 0.0
2017-Apr-18 22:52N 18°02' W 063°06'0 0.0
2017-Apr-18 22:10N 18°02' W 063°06'0 0.0
2017-Apr-18 21:55N 18°02' W 063°06'0 0.0
2017-Apr-18 21:28N 18°02' W 063°06'0 0.0
2017-Apr-18 20:58N 18°02' W 063°06'0 0.0
2017-Apr-18 20:28N 18°02' W 063°06'0 0.0
2017-Apr-18 19:55N 18°02' W 063°06'0 0.0
2017-Apr-18 19:28N 18°02' W 063°06'0 0.0
2017-Apr-18 18:46N 18°02' W 063°06'0 0.0
2017-Apr-18 18:28N 18°02' W 063°06'0 0.0
2017-Apr-18 17:58N 18°02' W 063°06'0 0.0
2017-Apr-18 17:28N 18°02' W 063°06'0 0.0
2017-Apr-18 16:58N 18°02' W 063°06'0 0.0
2017-Apr-18 16:28N 18°02' W 063°06'0 0.0
2017-Apr-18 15:58N 18°02' W 063°06'0 0.0
2017-Apr-18 15:28N 18°02' W 063°06'0 0.0
2017-Apr-18 14:58N 18°02' W 063°06'0 0.0
2017-Apr-18 14:19N 18°02' W 063°06'0 0.1
2017-Apr-18 13:22N 18°02' W 063°05'0 0.0
2017-Apr-18 12:52N 18°02' W 063°05'0 0.0
2017-Apr-18 12:22N 18°02' W 063°05'0 0.0
2017-Apr-18 11:52N 18°02' W 063°05'0 0.0
2017-Apr-18 11:22N 18°02' W 063°05'0 0.0
2017-Apr-18 10:52N 18°02' W 063°05'0 0.0
2017-Apr-18 10:25N 18°02' W 063°05'0 0.0
2017-Apr-18 09:55N 18°02' W 063°05'0 0.0
2017-Apr-18 09:25N 18°02' W 063°05'0 0.0
2017-Apr-18 08:55N 18°02' W 063°05'0 0.0
2017-Apr-18 08:25N 18°02' W 063°05'0 0.0
2017-Apr-18 07:55N 18°02' W 063°05'0 0.0
2017-Apr-18 07:28N 18°02' W 063°05'0 0.0
2017-Apr-18 06:58N 18°02' W 063°05'0 0.0
2017-Apr-18 06:28N 18°02' W 063°05'0 0.0
2017-Apr-18 05:58N 18°02' W 063°05'0 0.0
2017-Apr-18 05:25N 18°02' W 063°05'0 0.0
2017-Apr-18 04:58N 18°02' W 063°05'0 0.0
2017-Apr-18 04:28N 18°02' W 063°05'0 0.0
2017-Apr-18 03:58N 18°02' W 063°05'0 0.0
2017-Apr-18 03:28N 18°02' W 063°05'0 0.0
2017-Apr-18 02:58N 18°02' W 063°05'0 0.0
2017-Apr-18 02:19N 18°02' W 063°05'0 0.0
2017-Apr-18 01:58N 18°02' W 063°05'0 0.0
2017-Apr-18 01:28N 18°02' W 063°05'0 0.0
2017-Apr-18 00:58N 18°02' W 063°05'0 0.0
2017-Apr-18 00:19N 18°02' W 063°05'0 0.0
2017-Apr-17 23:49N 18°02' W 063°05'0 0.0
2017-Apr-17 23:22N 18°02' W 063°05'0 0.0
2017-Apr-17 22:52N 18°02' W 063°05'0 0.0
2017-Apr-17 22:19N 18°02' W 063°05'0 0.0
2017-Apr-17 21:52N 18°02' W 063°05'0 0.0
2017-Apr-17 21:22N 18°02' W 063°05'0 0.0
2017-Apr-17 20:52N 18°02' W 063°05'0 0.0
2017-Apr-17 20:25N 18°02' W 063°05'0 0.0
2017-Apr-17 19:55N 18°02' W 063°05'0 0.0
2017-Apr-17 19:25N 18°02' W 063°05'0 0.0
2017-Apr-17 18:55N 18°02' W 063°05'0 0.0
2017-Apr-17 18:25N 18°02' W 063°05'0 0.0
2017-Apr-17 17:58N 18°02' W 063°05'0 0.0
2017-Apr-17 17:28N 18°02' W 063°05'0 0.0
2017-Apr-17 16:58N 18°02' W 063°05'0 0.0
2017-Apr-17 15:58N 18°02' W 063°05'0 0.0
2017-Apr-17 15:28N 18°02' W 063°05'0 0.0
2017-Apr-17 14:58N 18°02' W 063°05'0 0.0
2017-Apr-17 14:28N 18°02' W 063°05'0 0.0
2017-Apr-17 13:28N 18°02' W 063°05'0 0.0
2017-Apr-17 12:58N 18°02' W 063°05'0 0.0
2017-Apr-17 12:28N 18°02' W 063°05'0 0.0
2017-Apr-17 11:58N 18°02' W 063°05'0 0.0
2017-Apr-17 11:28N 18°02' W 063°05'0 0.0
2017-Apr-17 10:58N 18°02' W 063°05'0 0.0
2017-Apr-17 10:19N 18°02' W 063°05'0 0.0
2017-Apr-17 09:49N 18°02' W 063°05'0 0.0
2017-Apr-17 09:22N 18°02' W 063°05'0 0.0
2017-Apr-17 08:52N 18°02' W 063°05'0 0.0
2017-Apr-17 08:22N 18°02' W 063°05'0 0.0
2017-Apr-17 07:52N 18°02' W 063°05'0 0.0
2017-Apr-17 07:07N 18°02' W 063°05'0 0.0
2017-Apr-17 06:52N 18°02' W 063°05'0 0.0
2017-Apr-17 06:25N 18°02' W 063°05'0 0.0
2017-Apr-17 05:55N 18°02' W 063°05'0 0.0
2017-Apr-17 05:25N 18°02' W 063°05'0 0.0
2017-Apr-17 04:55N 18°02' W 063°05'0 0.0
2017-Apr-17 04:25N 18°02' W 063°05'0 0.0
2017-Apr-17 03:58N 18°02' W 063°05'0 0.0
2017-Apr-17 03:28N 18°02' W 063°05'0 0.0
2017-Apr-17 02:58N 18°02' W 063°05'0 0.0
2017-Apr-17 02:25N 18°02' W 063°05'0 0.0
2017-Apr-17 01:58N 18°02' W 063°05'0 0.0
2017-Apr-17 01:28N 18°02' W 063°05'0 0.0
2017-Apr-17 00:58N 18°02' W 063°05'0 0.0
2017-Apr-17 00:28N 18°02' W 063°05'0 0.0
2017-Apr-16 23:58N 18°02' W 063°05'0 0.0
2017-Apr-16 23:28N 18°02' W 063°05'0 0.0
2017-Apr-16 22:58N 18°02' W 063°05'0 0.0
2017-Apr-16 22:28N 18°02' W 063°05'0 0.0
2017-Apr-16 21:49N 18°02' W 063°05'0 0.0
2017-Apr-16 21:13N 18°02' W 063°05'0 0.0
2017-Apr-16 20:49N 18°02' W 063°05'0 0.0
2017-Apr-16 20:19N 18°02' W 063°05'0 0.0
2017-Apr-16 19:49N 18°02' W 063°05'0 0.0
2017-Apr-16 19:22N 18°02' W 063°05'0 0.0
2017-Apr-16 18:52N 18°02' W 063°05'0 0.0
2017-Apr-16 18:22N 18°02' W 063°05'0 0.0
2017-Apr-16 17:52N 18°02' W 063°05'0 0.0
2017-Apr-16 17:22N 18°02' W 063°05'0 0.0
2017-Apr-16 16:49N 18°02' W 063°05'0 0.0
2017-Apr-16 16:25N 18°02' W 063°05'0 0.0
2017-Apr-16 15:55N 18°02' W 063°05'0 0.0
2017-Apr-16 15:10N 18°02' W 063°05'0 0.0
2017-Apr-16 14:52N 18°02' W 063°05'0 0.0
2017-Apr-16 13:52N 18°02' W 063°05'0 0.0
2017-Apr-16 13:28N 18°02' W 063°05'0 0.0
2017-Apr-16 12:58N 18°02' W 063°05'0 0.0
2017-Apr-16 12:28N 18°02' W 063°05'0 0.0
2017-Apr-16 11:58N 18°02' W 063°05'0 0.0
2017-Apr-16 11:28N 18°02' W 063°05'0 0.0
2017-Apr-16 10:55N 18°02' W 063°05'0 0.0
2017-Apr-16 10:28N 18°02' W 063°05'0 0.0
2017-Apr-16 09:46N 18°02' W 063°05'0 0.0
2017-Apr-16 09:28N 18°02' W 063°05'0 0.0
2017-Apr-16 08:46N 18°02' W 063°05'0 0.0
2017-Apr-16 08:28N 18°02' W 063°05'0 0.0
2017-Apr-16 07:58N 18°02' W 063°05'0 0.0
2017-Apr-16 07:28N 18°02' W 063°05'0 0.0
2017-Apr-16 06:46N 18°02' W 063°05'0 0.0
2017-Apr-15 23:55N 18°02' W 063°05'0 0.0
2017-Apr-15 23:28N 18°02' W 063°05'0 0.0
2017-Apr-15 22:58N 18°02' W 063°05'0 0.0
2017-Apr-15 22:25N 18°02' W 063°05'0 0.0
2017-Apr-15 21:58N 18°02' W 063°05'0 0.0
2017-Apr-15 21:28N 18°02' W 063°05'0 0.0
2017-Apr-15 20:58N 18°02' W 063°05'0 0.0
2017-Apr-15 20:28N 18°02' W 063°05'0 0.0
2017-Apr-15 19:31N 18°02' W 063°05'0 0.0
2017-Apr-15 19:28N 18°02' W 063°05'0 0.0
2017-Apr-15 18:58N 18°02' W 063°05'0 0.0
2017-Apr-15 18:28N 18°02' W 063°05'0 0.0
2017-Apr-15 17:58N 18°02' W 063°05'0 0.0
2017-Apr-15 17:28N 18°02' W 063°05'0 0.0
2017-Apr-15 16:49N 18°02' W 063°05'0 0.0
2017-Apr-15 16:19N 18°02' W 063°05'0 0.0
2017-Apr-15 15:49N 18°02' W 063°05'0 0.0
2017-Apr-15 15:22N 18°02' W 063°05'0 0.0
2017-Apr-15 14:52N 18°02' W 063°05'0 0.0
2017-Apr-15 14:22N 18°02' W 063°05'0 0.0
2017-Apr-15 13:22N 18°02' W 063°05'0 0.0
2017-Apr-15 12:52N 18°02' W 063°05'0 0.0
2017-Apr-15 12:25N 18°02' W 063°05'0 0.0
2017-Apr-15 11:55N 18°02' W 063°05'0 0.0
2017-Apr-15 11:25N 18°02' W 063°05'0 0.0
2017-Apr-15 10:55N 18°02' W 063°05'0 0.0
2017-Apr-15 10:25N 18°02' W 063°05'0 0.0
2017-Apr-15 09:58N 18°02' W 063°05'0 0.0
2017-Apr-15 09:28N 18°02' W 063°05'0 0.0
2017-Apr-15 08:58N 18°02' W 063°05'0 0.0
2017-Apr-15 08:10N 18°02' W 063°05'0 0.0
2017-Apr-15 07:58N 18°02' W 063°05'0 0.0
2017-Apr-15 07:28N 18°02' W 063°05'0 0.0
2017-Apr-15 06:46N 18°02' W 063°05'0 0.0
2017-Apr-15 06:28N 18°02' W 063°05'0 0.0
2017-Apr-15 05:46N 18°02' W 063°05'0 0.0
2017-Apr-15 05:28N 18°02' W 063°05'0 0.0
2017-Apr-15 04:58N 18°02' W 063°05'0 0.0
2017-Apr-15 04:28N 18°02' W 063°05'0 0.0
2017-Apr-15 03:58N 18°02' W 063°05'0 0.0
2017-Apr-15 03:28N 18°02' W 063°05'0 0.0
2017-Apr-15 02:49N 18°02' W 063°05'0 0.0
2017-Apr-15 02:19N 18°02' W 063°05'0 0.0
2017-Apr-15 02:01N 18°02' W 063°05'0 0.0
2017-Apr-15 01:22N 18°02' W 063°05'0 0.0
2017-Apr-15 00:52N 18°02' W 063°05'0 0.0
2017-Apr-15 00:07N 18°02' W 063°05'0 0.0
2017-Apr-14 23:52N 18°02' W 063°05'0 0.0
2017-Apr-14 23:22N 18°02' W 063°05'0 0.0
2017-Apr-14 22:55N 18°02' W 063°05'0 0.0
2017-Apr-14 22:25N 18°02' W 063°05'0 0.0
2017-Apr-14 21:55N 18°02' W 063°05'0 0.0
2017-Apr-14 21:25N 18°02' W 063°05'0 0.0
2017-Apr-14 20:55N 18°02' W 063°05'0 0.0
2017-Apr-14 20:25N 18°02' W 063°05'0 0.0
2017-Apr-14 19:58N 18°02' W 063°05'0 0.0
2017-Apr-14 19:28N 18°02' W 063°05'0 0.0
2017-Apr-14 18:58N 18°02' W 063°05'0 0.0
2017-Apr-14 18:28N 18°02' W 063°05'0 0.0
2017-Apr-14 17:58N 18°02' W 063°05'0 0.0
2017-Apr-14 17:28N 18°02' W 063°05'0 0.0
2017-Apr-14 16:58N 18°02' W 063°05'0 0.0
2017-Apr-14 16:28N 18°02' W 063°05'0 0.0
2017-Apr-14 15:58N 18°02' W 063°05'0 0.0
2017-Apr-14 15:28N 18°02' W 063°05'0 0.0
2017-Apr-14 14:58N 18°02' W 063°05'0 0.0
2017-Apr-14 13:58N 18°02' W 063°05'0 0.0
2017-Apr-14 13:28N 18°02' W 063°05'0 0.0
2017-Apr-14 12:49N 18°02' W 063°05'0 0.0
2017-Apr-14 12:19N 18°02' W 063°05'0 0.0
2017-Apr-14 11:49N 18°02' W 063°05'0 0.0
2017-Apr-14 11:22N 18°02' W 063°05'0 0.0
2017-Apr-14 10:52N 18°02' W 063°05'0 0.0
2017-Apr-14 10:31N 18°02' W 063°05'0 0.0
2017-Apr-14 09:52N 18°02' W 063°05'0 0.0
2017-Apr-14 09:22N 18°02' W 063°05'0 0.0
2017-Apr-14 08:52N 18°02' W 063°05'0 0.0
2017-Apr-14 08:25N 18°02' W 063°05'0 0.0
2017-Apr-14 07:55N 18°02' W 063°05'0 0.0
2017-Apr-14 07:25N 18°02' W 063°05'0 0.0
2017-Apr-14 06:55N 18°02' W 063°05'0 0.0
2017-Apr-14 06:25N 18°02' W 063°05'0 0.0
2017-Apr-14 05:58N 18°02' W 063°05'0 0.0
2017-Apr-14 05:28N 18°02' W 063°05'0 0.0
2017-Apr-14 04:58N 18°02' W 063°05'0 0.0
2017-Apr-14 04:13N 18°02' W 063°05'0 0.0
2017-Apr-14 03:58N 18°02' W 063°05'0 0.0
2017-Apr-14 03:27N 18°02' W 063°05'0 0.0
2017-Apr-14 02:55N 18°02' W 063°05'0 0.0
2017-Apr-14 02:30N 18°02' W 063°05'0 0.0
2017-Apr-14 02:00N 18°02' W 063°05'0 0.0
2017-Apr-14 01:28N 18°02' W 063°05'0 0.0
2017-Apr-14 01:01N 18°02' W 063°05'0 0.0
2017-Apr-14 00:31N 18°02' W 063°05'0 0.0
2017-Apr-13 23:58N 18°02' W 063°05'0 0.0
2017-Apr-13 23:30N 18°02' W 063°05'0 0.0
2017-Apr-13 22:49N 18°02' W 063°05'0 0.0
2017-Apr-13 22:19N 18°02' W 063°05'0 0.0
2017-Apr-13 21:49N 18°02' W 063°05'0 0.0
2017-Apr-13 21:30N 18°02' W 063°05'0 0.0
2017-Apr-13 20:52N 18°02' W 063°05'0 0.0
2017-Apr-13 20:21N 18°02' W 063°05'0 0.0
2017-Apr-13 19:52N 18°02' W 063°05'0 0.0
2017-Apr-13 19:22N 18°02' W 063°05'  
Track history (hours):
 
Tides and Currents Weather Stations Pressure Air Temp Water Temp Dewpoint Dewpoint Depression Visibility Wind Speed Wind Dir Waves Ship Positions

Newvida

Last reported at 2017-Apr-23 19:15 UTC. Time now 2017-Apr-29 23:09 UTC.
Position N 18°32' W 064°21'.

Length 56 m; draft 2.4 m.

Type: Pleasure craft. MMSI: 538080049.

Date/timePositionNaut miles runAvg speedWind from/ knotsBaromVisibWave heightAir tempDewpointWater temp
2017-Apr-23 19:15N 18°32' W 064°21'8 9.4
2017-Apr-23 18:25N 18°32' W 064°29'12 9.0
2017-Apr-23 17:06N 18°27' W 064°40'1 7.0
2017-Apr-23 17:00N 18°26' W 064°41'3 6.9
2017-Apr-23 16:30N 18°24' W 064°43'1 1.3
2017-Apr-23 16:00N 18°23' W 064°43'0 0.0
2017-Apr-23 15:30N 18°23' W 064°43'0 0.1
2017-Apr-23 15:00N 18°23' W 064°43'0 0.0
2017-Apr-23 14:00N 18°23' W 064°43'0 0.0
2017-Apr-23 13:30N 18°23' W 064°43'0 0.1
2017-Apr-23 13:00N 18°23' W 064°43'2 4.4
2017-Apr-23 12:30N 18°22' W 064°41'510.8
2017-Apr-23 12:00N 18°20' W 064°35'0 1.0
2017-Apr-23 11:30N 18°21' W 064°35'0 0.0
2017-Apr-23 10:56N 18°21' W 064°35'0 0.0
2017-Apr-23 10:23N 18°21' W 064°35'0 0.0
2017-Apr-23 10:00N 18°21' W 064°35'0 0.0
2017-Apr-23 09:30N 18°21' W 064°35'0 0.0
2017-Apr-23 09:00N 18°21' W 064°35'0 0.0
2017-Apr-23 08:30N 18°21' W 064°35'0 0.0
2017-Apr-23 08:00N 18°21' W 064°35'0 0.0
2017-Apr-23 07:30N 18°21' W 064°35'0 0.0
2017-Apr-23 07:00N 18°21' W 064°35'0 0.0
2017-Apr-23 06:30N 18°21' W 064°35'0 0.0
2017-Apr-23 06:00N 18°21' W 064°35'0 0.0
2017-Apr-23 05:30N 18°21' W 064°35'0 0.0
2017-Apr-23 05:00N 18°21' W 064°35'0 0.1
2017-Apr-23 04:23N 18°21' W 064°35'6410.9
2017-Apr-22 22:28N 18°06' W 063°29'611.6
2017-Apr-22 21:56N 18°05' W 063°22'611.7
2017-Apr-22 21:27N 18°04' W 063°17'611.5
2017-Apr-22 20:57N 18°03' W 063°11'4 8.8
2017-Apr-22 20:30N 18°02' W 063°06'1 1.6
2017-Apr-22 19:58N 18°02' W 063°06'0 0.1
2017-Apr-22 19:28N 18°02' W 063°06'0 0.0
2017-Apr-22 18:58N 18°02' W 063°06'0 0.0
2017-Apr-22 18:28N 18°02' W 063°06'0 0.0
2017-Apr-22 17:58N 18°02' W 063°06'0 0.0
2017-Apr-22 17:28N 18°02' W 063°06'0 0.0
2017-Apr-22 16:58N 18°02' W 063°06'0 0.0
2017-Apr-22 16:28N 18°02' W 063°06'0 0.0
2017-Apr-22 15:46N 18°02' W 063°06'0 0.0
2017-Apr-22 15:04N 18°02' W 063°06'0 0.0
2017-Apr-22 14:52N 18°02' W 063°06'0 0.0
2017-Apr-22 14:22N 18°02' W 063°06'0 0.0
2017-Apr-22 13:22N 18°02' W 063°06'0 0.0
2017-Apr-22 12:52N 18°02' W 063°06'0 0.0
2017-Apr-22 12:22N 18°02' W 063°06'0 0.0
2017-Apr-22 11:55N 18°02' W 063°06'0 0.0
2017-Apr-22 11:22N 18°02' W 063°06'0 0.0
2017-Apr-22 10:55N 18°02' W 063°06'0 0.0
2017-Apr-22 10:25N 18°02' W 063°06'0 0.0
2017-Apr-22 09:55N 18°02' W 063°06'0 0.0
2017-Apr-22 09:25N 18°02' W 063°06'0 0.0
2017-Apr-22 08:58N 18°02' W 063°06'0 0.0
2017-Apr-22 08:28N 18°02' W 063°06'0 0.0
2017-Apr-22 07:58N 18°02' W 063°06'0 0.0
2017-Apr-22 07:28N 18°02' W 063°06'0 0.0
2017-Apr-22 06:55N 18°02' W 063°06'0 0.0
2017-Apr-22 06:28N 18°02' W 063°06'0 0.0
2017-Apr-22 05:58N 18°02' W 063°06'0 0.0
2017-Apr-22 05:28N 18°02' W 063°06'0 0.0
2017-Apr-22 04:43N 18°02' W 063°06'0 0.0
2017-Apr-22 04:28N 18°02' W 063°06'0 0.0
2017-Apr-22 03:58N 18°02' W 063°06'0 0.0
2017-Apr-22 03:28N 18°02' W 063°06'0 0.0
2017-Apr-22 02:58N 18°02' W 063°06'0 0.0
2017-Apr-22 02:28N 18°02' W 063°06'0 0.0
2017-Apr-22 01:49N 18°02' W 063°06'0 0.0
2017-Apr-22 01:19N 18°02' W 063°06'0 0.0
2017-Apr-22 00:52N 18°02' W 063°06'0 0.0
2017-Apr-22 00:22N 18°02' W 063°06'0 0.0
2017-Apr-21 23:52N 18°02' W 063°06'0 0.0
2017-Apr-21 23:22N 18°02' W 063°06'0 0.0
2017-Apr-21 22:52N 18°02' W 063°06'0 0.0
2017-Apr-21 22:22N 18°02' W 063°06'0 0.0
2017-Apr-21 21:55N 18°02' W 063°06'0 0.0
2017-Apr-21 21:25N 18°02' W 063°06'0 0.0
2017-Apr-21 20:55N 18°02' W 063°06'0 0.0
2017-Apr-21 20:25N 18°02' W 063°06'0 0.0
2017-Apr-21 19:55N 18°02' W 063°06'0 0.0
2017-Apr-21 19:28N 18°02' W 063°06'0 0.0
2017-Apr-21 18:58N 18°02' W 063°06'0 0.0
2017-Apr-21 18:25N 18°02' W 063°06'0 0.0
2017-Apr-21 17:58N 18°02' W 063°06'0 0.0
2017-Apr-21 17:28N 18°02' W 063°06'0 0.0
2017-Apr-21 16:58N 18°02' W 063°06'0 0.0
2017-Apr-21 16:28N 18°02' W 063°06'0 0.0
2017-Apr-21 15:58N 18°02' W 063°06'0 0.0
2017-Apr-21 15:28N 18°02' W 063°06'0 0.0
2017-Apr-21 14:58N 18°02' W 063°06'0 0.0
2017-Apr-21 14:28N 18°02' W 063°06'0 0.0
2017-Apr-21 13:28N 18°02' W 063°06'0 0.0
2017-Apr-21 12:58N 18°02' W 063°06'0 0.0
2017-Apr-21 12:04N 18°02' W 063°06'0 0.0
2017-Apr-21 11:49N 18°02' W 063°06'0 0.0
2017-Apr-21 11:19N 18°02' W 063°06'0 0.0
2017-Apr-21 10:52N 18°02' W 063°06'0 0.0
2017-Apr-21 10:22N 18°02' W 063°06'0 0.0
2017-Apr-21 09:52N 18°02' W 063°06'0 0.0
2017-Apr-21 09:22N 18°02' W 063°06'0 0.0
2017-Apr-21 08:52N 18°02' W 063°06'0 0.0
2017-Apr-21 08:22N 18°02' W 063°06'0 0.0
2017-Apr-21 07:49N 18°02' W 063°06'0 0.0
2017-Apr-21 07:25N 18°02' W 063°06'0 0.0
2017-Apr-21 06:55N 18°02' W 063°06'0 0.0
2017-Apr-21 06:25N 18°02' W 063°06'0 0.0
2017-Apr-21 05:55N 18°02' W 063°06'0 0.0
2017-Apr-21 05:28N 18°02' W 063°06'0 0.0
2017-Apr-21 04:58N 18°02' W 063°06'0 0.0
2017-Apr-21 04:25N 18°02' W 063°06'0 0.0
2017-Apr-21 03:58N 18°02' W 063°06'0 0.0
2017-Apr-21 03:28N 18°02' W 063°06'0 0.0
2017-Apr-21 02:58N 18°02' W 063°06'0 0.0
2017-Apr-21 02:28N 18°02' W 063°06'0 0.0
2017-Apr-21 01:58N 18°02' W 063°06'0 0.0
2017-Apr-21 01:28N 18°02' W 063°06'0 0.0
2017-Apr-21 00:58N 18°02' W 063°06'0 0.0
2017-Apr-21 00:16N 18°02' W 063°06'0 0.0
2017-Apr-20 23:49N 18°02' W 063°06'0 0.0
2017-Apr-20 23:28N 18°02' W 063°06'0 0.0
2017-Apr-20 22:58N 18°02' W 063°06'0 0.0
2017-Apr-20 22:19N 18°02' W 063°06'0 0.0
2017-Apr-20 21:49N 18°02' W 063°06'0 0.0
2017-Apr-20 21:16N 18°02' W 063°06'0 0.0
2017-Apr-20 20:52N 18°02' W 063°06'0 0.0
2017-Apr-20 20:22N 18°02' W 063°06'0 0.0
2017-Apr-20 19:52N 18°02' W 063°06'0 0.0
2017-Apr-20 19:07N 18°02' W 063°06'0 0.0
2017-Apr-20 18:49N 18°02' W 063°06'0 0.0
2017-Apr-20 18:25N 18°02' W 063°06'0 0.0
2017-Apr-20 17:55N 18°02' W 063°06'0 0.0
2017-Apr-20 17:25N 18°02' W 063°06'0 0.0
2017-Apr-20 16:55N 18°02' W 063°06'0 0.0
2017-Apr-20 16:25N 18°02' W 063°06'0 0.0
2017-Apr-20 15:55N 18°02' W 063°06'0 0.0
2017-Apr-20 15:28N 18°02' W 063°06'0 0.0
2017-Apr-20 14:58N 18°02' W 063°06'0 0.0
2017-Apr-20 13:58N 18°02' W 063°06'0 0.0
2017-Apr-20 13:28N 18°02' W 063°06'0 0.0
2017-Apr-20 12:58N 18°02' W 063°06'0 0.0
2017-Apr-20 12:25N 18°02' W 063°06'0 0.0
2017-Apr-20 11:58N 18°02' W 063°06'0 0.0
2017-Apr-20 11:16N 18°02' W 063°06'0 0.0
2017-Apr-20 10:46N 18°02' W 063°06'0 0.0
2017-Apr-20 10:28N 18°02' W 063°06'0 0.0
2017-Apr-20 09:58N 18°02' W 063°06'0 0.0
2017-Apr-20 09:28N 18°02' W 063°06'0 0.0
2017-Apr-20 08:58N 18°02' W 063°06'0 0.0
2017-Apr-20 08:01N 18°02' W 063°06'0 0.0
2017-Apr-20 07:49N 18°02' W 063°06'0 0.0
2017-Apr-20 07:19N 18°02' W 063°06'0 0.0
2017-Apr-20 06:52N 18°02' W 063°06'0 0.0
2017-Apr-20 06:22N 18°02' W 063°06'0 0.0
2017-Apr-20 05:22N 18°02' W 063°06'0 0.0
2017-Apr-20 04:49N 18°02' W 063°06'0 0.0
2017-Apr-20 04:22N 18°02' W 063°06'0 0.0
2017-Apr-20 03:55N 18°02' W 063°06'0 0.0
2017-Apr-20 03:25N 18°02' W 063°06'0 0.0
2017-Apr-20 02:55N 18°02' W 063°06'0 0.0
2017-Apr-20 02:25N 18°02' W 063°06'0 0.0
2017-Apr-20 01:52N 18°02' W 063°06'0 0.0
2017-Apr-20 01:28N 18°02' W 063°06'0 0.0
2017-Apr-20 00:58N 18°02' W 063°06'0 0.0
2017-Apr-20 00:28N 18°02' W 063°06'0 0.0
2017-Apr-19 23:13N 18°02' W 063°06'0 0.0
2017-Apr-19 22:58N 18°02' W 063°06'0 0.0
2017-Apr-19 22:13N 18°02' W 063°06'0 0.0
2017-Apr-19 21:58N 18°02' W 063°06'0 0.0
2017-Apr-19 21:28N 18°02' W 063°06'0 0.0
2017-Apr-19 20:58N 18°02' W 063°06'0 0.0
2017-Apr-19 20:28N 18°02' W 063°06'0 0.0
2017-Apr-19 19:58N 18°02' W 063°06'0 0.0
2017-Apr-19 19:28N 18°02' W 063°06'0 0.0
2017-Apr-19 18:58N 18°02' W 063°06'0 0.0
2017-Apr-19 18:04N 18°02' W 063°06'0 0.0
2017-Apr-19 17:49N 18°02' W 063°06'0 0.0
2017-Apr-19 17:19N 18°02' W 063°06'0 0.0
2017-Apr-19 16:49N 18°02' W 063°06'0 0.0
2017-Apr-19 16:22N 18°02' W 063°06'0 0.0
2017-Apr-19 15:52N 18°02' W 063°06'0 0.0
2017-Apr-19 15:22N 18°02' W 063°06'0 0.0
2017-Apr-19 14:52N 18°02' W 063°06'0 0.0
2017-Apr-19 14:25N 18°02' W 063°06'0 0.0
2017-Apr-19 13:55N 18°02' W 063°06'0 0.0
2017-Apr-19 13:25N 18°02' W 063°06'0 0.0
2017-Apr-19 12:55N 18°02' W 063°06'0 0.0
2017-Apr-19 12:25N 18°02' W 063°06'0 0.0
2017-Apr-19 11:52N 18°02' W 063°06'0 0.0
2017-Apr-19 11:28N 18°02' W 063°06'0 0.0
2017-Apr-19 10:58N 18°02' W 063°06'0 0.0
2017-Apr-19 10:28N 18°02' W 063°06'0 0.0
2017-Apr-19 09:58N 18°02' W 063°06'0 0.0
2017-Apr-19 09:28N 18°02' W 063°06'0 0.0
2017-Apr-19 08:58N 18°02' W 063°06'0 0.0
2017-Apr-19 08:28N 18°02' W 063°06'0 0.0
2017-Apr-19 07:58N 18°02' W 063°06'0 0.0
2017-Apr-19 07:28N 18°02' W 063°06'0 0.0
2017-Apr-19 06:31N 18°02' W 063°06'0 0.0
2017-Apr-19 06:28N 18°02' W 063°06'0 0.0
2017-Apr-19 05:58N 18°02' W 063°06'0 0.0
2017-Apr-19 05:28N 18°02' W 063°06'0 0.0
2017-Apr-19 04:58N 18°02' W 063°06'0 0.0
2017-Apr-19 04:19N 18°02' W 063°06'0 0.0
2017-Apr-19 03:46N 18°02' W 063°06'0 0.0
2017-Apr-19 03:19N 18°02' W 063°06'0 0.0
2017-Apr-19 02:52N 18°02' W 063°06'0 0.0
2017-Apr-19 02:22N 18°02' W 063°06'0 0.0
2017-Apr-19 01:52N 18°02' W 063°06'0 0.0
2017-Apr-19 01:22N 18°02' W 063°06'0 0.0
2017-Apr-19 00:52N 18°02' W 063°06'0 0.0
2017-Apr-19 00:25N 18°02' W 063°06'0 0.0
2017-Apr-18 23:55N 18°02' W 063°06'0 0.0
2017-Apr-18 23:22N 18°02' W 063°06'0 0.0
2017-Apr-18 22:52N 18°02' W 063°06'0 0.0
2017-Apr-18 22:10N 18°02' W 063°06'0 0.0
2017-Apr-18 21:55N 18°02' W 063°06'0 0.0
2017-Apr-18 21:28N 18°02' W 063°06'0 0.0
2017-Apr-18 20:58N 18°02' W 063°06'0 0.0
2017-Apr-18 20:28N 18°02' W 063°06'0 0.0
2017-Apr-18 19:55N 18°02' W 063°06'0 0.0
2017-Apr-18 19:28N 18°02' W 063°06'0 0.0
2017-Apr-18 18:46N 18°02' W 063°06'0 0.0
2017-Apr-18 18:28N 18°02' W 063°06'0 0.0
2017-Apr-18 17:58N 18°02' W 063°06'0 0.0
2017-Apr-18 17:28N 18°02' W 063°06'0 0.0
2017-Apr-18 16:58N 18°02' W 063°06'0 0.0
2017-Apr-18 16:28N 18°02' W 063°06'0 0.0
2017-Apr-18 15:58N 18°02' W 063°06'0 0.0
2017-Apr-18 15:28N 18°02' W 063°06'0 0.0
2017-Apr-18 14:58N 18°02' W 063°06'0 0.0
2017-Apr-18 14:19N 18°02' W 063°06'0 0.1
2017-Apr-18 13:22N 18°02' W 063°05'0 0.0
2017-Apr-18 12:52N 18°02' W 063°05'0 0.0
2017-Apr-18 12:22N 18°02' W 063°05'0 0.0
2017-Apr-18 11:52N 18°02' W 063°05'0 0.0
2017-Apr-18 11:22N 18°02' W 063°05'0 0.0
2017-Apr-18 10:52N 18°02' W 063°05'0 0.0
2017-Apr-18 10:25N 18°02' W 063°05'0 0.0
2017-Apr-18 09:55N 18°02' W 063°05'0 0.0
2017-Apr-18 09:25N 18°02' W 063°05'0 0.0
2017-Apr-18 08:55N 18°02' W 063°05'0 0.0
2017-Apr-18 08:25N 18°02' W 063°05'0 0.0
2017-Apr-18 07:55N 18°02' W 063°05'0 0.0
2017-Apr-18 07:28N 18°02' W 063°05'0 0.0
2017-Apr-18 06:58N 18°02' W 063°05'0 0.0
2017-Apr-18 06:28N 18°02' W 063°05'0 0.0
2017-Apr-18 05:58N 18°02' W 063°05'0 0.0
2017-Apr-18 05:25N 18°02' W 063°05'0 0.0
2017-Apr-18 04:58N 18°02' W 063°05'0 0.0
2017-Apr-18 04:28N 18°02' W 063°05'0 0.0
2017-Apr-18 03:58N 18°02' W 063°05'0 0.0
2017-Apr-18 03:28N 18°02' W 063°05'0 0.0
2017-Apr-18 02:58N 18°02' W 063°05'0 0.0
2017-Apr-18 02:19N 18°02' W 063°05'0 0.0
2017-Apr-18 01:58N 18°02' W 063°05'0 0.0
2017-Apr-18 01:28N 18°02' W 063°05'0 0.0
2017-Apr-18 00:58N 18°02' W 063°05'0 0.0
2017-Apr-18 00:19N 18°02' W 063°05'0 0.0
2017-Apr-17 23:49N 18°02' W 063°05'0 0.0
2017-Apr-17 23:22N 18°02' W 063°05'0 0.0
2017-Apr-17 22:52N 18°02' W 063°05'0 0.0
2017-Apr-17 22:19N 18°02' W 063°05'0 0.0
2017-Apr-17 21:52N 18°02' W 063°05'0 0.0
2017-Apr-17 21:22N 18°02' W 063°05'0 0.0
2017-Apr-17 20:52N 18°02' W 063°05'0 0.0
2017-Apr-17 20:25N 18°02' W 063°05'0 0.0
2017-Apr-17 19:55N 18°02' W 063°05'0 0.0
2017-Apr-17 19:25N 18°02' W 063°05'0 0.0
2017-Apr-17 18:55N 18°02' W 063°05'0 0.0
2017-Apr-17 18:25N 18°02' W 063°05'0 0.0
2017-Apr-17 17:58N 18°02' W 063°05'0 0.0
2017-Apr-17 17:28N 18°02' W 063°05'0 0.0
2017-Apr-17 16:58N 18°02' W 063°05'0 0.0
2017-Apr-17 15:58N 18°02' W 063°05'0 0.0
2017-Apr-17 15:28N 18°02' W 063°05'0 0.0
2017-Apr-17 14:58N 18°02' W 063°05'0 0.0
2017-Apr-17 14:28N 18°02' W 063°05'0 0.0
2017-Apr-17 13:28N 18°02' W 063°05'0 0.0
2017-Apr-17 12:58N 18°02' W 063°05'0 0.0
2017-Apr-17 12:28N 18°02' W 063°05'0 0.0
2017-Apr-17 11:58N 18°02' W 063°05'0 0.0
2017-Apr-17 11:28N 18°02' W 063°05'0 0.0
2017-Apr-17 10:58N 18°02' W 063°05'0 0.0
2017-Apr-17 10:19N 18°02' W 063°05'0 0.0
2017-Apr-17 09:49N 18°02' W 063°05'0 0.0
2017-Apr-17 09:22N 18°02' W 063°05'0 0.0
2017-Apr-17 08:52N 18°02' W 063°05'0 0.0
2017-Apr-17 08:22N 18°02' W 063°05'0 0.0
2017-Apr-17 07:52N 18°02' W 063°05'0 0.0
2017-Apr-17 07:07N 18°02' W 063°05'0 0.0
2017-Apr-17 06:52N 18°02' W 063°05'0 0.0
2017-Apr-17 06:25N 18°02' W 063°05'0 0.0
2017-Apr-17 05:55N 18°02' W 063°05'0 0.0
2017-Apr-17 05:25N 18°02' W 063°05'0 0.0
2017-Apr-17 04:55N 18°02' W 063°05'0 0.0
2017-Apr-17 04:25N 18°02' W 063°05'0 0.0
2017-Apr-17 03:58N 18°02' W 063°05'0 0.0
2017-Apr-17 03:28N 18°02' W 063°05'0 0.0
2017-Apr-17 02:58N 18°02' W 063°05'0 0.0
2017-Apr-17 02:25N 18°02' W 063°05'0 0.0
2017-Apr-17 01:58N 18°02' W 063°05'0 0.0
2017-Apr-17 01:28N 18°02' W 063°05'0 0.0
2017-Apr-17 00:58N 18°02' W 063°05'0 0.0
2017-Apr-17 00:28N 18°02' W 063°05'0 0.0
2017-Apr-16 23:58N 18°02' W 063°05'0 0.0
2017-Apr-16 23:28N 18°02' W 063°05'0 0.0
2017-Apr-16 22:58N 18°02' W 063°05'0 0.0
2017-Apr-16 22:28N 18°02' W 063°05'0 0.0
2017-Apr-16 21:49N 18°02' W 063°05'0 0.0
2017-Apr-16 21:13N 18°02' W 063°05'0 0.0
2017-Apr-16 20:49N 18°02' W 063°05'0 0.0
2017-Apr-16 20:19N 18°02' W 063°05'0 0.0
2017-Apr-16 19:49N 18°02' W 063°05'0 0.0
2017-Apr-16 19:22N 18°02' W 063°05'0 0.0
2017-Apr-16 18:52N 18°02' W 063°05'0 0.0
2017-Apr-16 18:22N 18°02' W 063°05'0 0.0
2017-Apr-16 17:52N 18°02' W 063°05'0 0.0
2017-Apr-16 17:22N 18°02' W 063°05'0 0.0
2017-Apr-16 16:49N 18°02' W 063°05'0 0.0
2017-Apr-16 16:25N 18°02' W 063°05'0 0.0
2017-Apr-16 15:55N 18°02' W 063°05'0 0.0
2017-Apr-16 15:10N 18°02' W 063°05'0 0.0
2017-Apr-16 14:52N 18°02' W 063°05'0 0.0
2017-Apr-16 13:52N 18°02' W 063°05'0 0.0
2017-Apr-16 13:28N 18°02' W 063°05'0 0.0
2017-Apr-16 12:58N 18°02' W 063°05'0 0.0
2017-Apr-16 12:28N 18°02' W 063°05'0 0.0
2017-Apr-16 11:58N 18°02' W 063°05'0 0.0
2017-Apr-16 11:28N 18°02' W 063°05'0 0.0
2017-Apr-16 10:55N 18°02' W 063°05'0 0.0
2017-Apr-16 10:28N 18°02' W 063°05'0 0.0
2017-Apr-16 09:46N 18°02' W 063°05'0 0.0
2017-Apr-16 09:28N 18°02' W 063°05'0 0.0
2017-Apr-16 08:46N 18°02' W 063°05'0 0.0
2017-Apr-16 08:28N 18°02' W 063°05'0 0.0
2017-Apr-16 07:58N 18°02' W 063°05'0 0.0
2017-Apr-16 07:28N 18°02' W 063°05'0 0.0
2017-Apr-16 06:46N 18°02' W 063°05'0 0.0
2017-Apr-15 23:55N 18°02' W 063°05'0 0.0
2017-Apr-15 23:28N 18°02' W 063°05'0 0.0
2017-Apr-15 22:58N 18°02' W 063°05'0 0.0
2017-Apr-15 22:25N 18°02' W 063°05'0 0.0
2017-Apr-15 21:58N 18°02' W 063°05'0 0.0
2017-Apr-15 21:28N 18°02' W 063°05'0 0.0
2017-Apr-15 20:58N 18°02' W 063°05'0 0.0
2017-Apr-15 20:28N 18°02' W 063°05'0 0.0
2017-Apr-15 19:31N 18°02' W 063°05'0 0.0
2017-Apr-15 19:28N 18°02' W 063°05'0 0.0
2017-Apr-15 18:58N 18°02' W 063°05'0 0.0
2017-Apr-15 18:28N 18°02' W 063°05'0 0.0
2017-Apr-15 17:58N 18°02' W 063°05'0 0.0
2017-Apr-15 17:28N 18°02' W 063°05'0 0.0
2017-Apr-15 16:49N 18°02' W 063°05'0 0.0
2017-Apr-15 16:19N 18°02' W 063°05'0 0.0
2017-Apr-15 15:49N 18°02' W 063°05'0 0.0
2017-Apr-15 15:22N 18°02' W 063°05'0 0.0
2017-Apr-15 14:52N 18°02' W 063°05'0 0.0
2017-Apr-15 14:22N 18°02' W 063°05'0 0.0
2017-Apr-15 13:22N 18°02' W 063°05'0 0.0
2017-Apr-15 12:52N 18°02' W 063°05'0 0.0
2017-Apr-15 12:25N 18°02' W 063°05'0 0.0
2017-Apr-15 11:55N 18°02' W 063°05'0 0.0
2017-Apr-15 11:25N 18°02' W 063°05'0 0.0
2017-Apr-15 10:55N 18°02' W 063°05'0 0.0
2017-Apr-15 10:25N 18°02' W 063°05'0 0.0
2017-Apr-15 09:58N 18°02' W 063°05'0 0.0
2017-Apr-15 09:28N 18°02' W 063°05'0 0.0
2017-Apr-15 08:58N 18°02' W 063°05'0 0.0
2017-Apr-15 08:10N 18°02' W 063°05'0 0.0
2017-Apr-15 07:58N 18°02' W 063°05'0 0.0
2017-Apr-15 07:28N 18°02' W 063°05'0 0.0
2017-Apr-15 06:46N 18°02' W 063°05'0 0.0
2017-Apr-15 06:28N 18°02' W 063°05'0 0.0
2017-Apr-15 05:46N 18°02' W 063°05'0 0.0
2017-Apr-15 05:28N 18°02' W 063°05'0 0.0
2017-Apr-15 04:58N 18°02' W 063°05'0 0.0
2017-Apr-15 04:28N 18°02' W 063°05'0 0.0
2017-Apr-15 03:58N 18°02' W 063°05'0 0.0
2017-Apr-15 03:28N 18°02' W 063°05'0 0.0
2017-Apr-15 02:49N 18°02' W 063°05'0 0.0
2017-Apr-15 02:19N 18°02' W 063°05'0 0.0
2017-Apr-15 02:01N 18°02' W 063°05'0 0.0
2017-Apr-15 01:22N 18°02' W 063°05'0 0.0
2017-Apr-15 00:52N 18°02' W 063°05'0 0.0
2017-Apr-15 00:07N 18°02' W 063°05'0 0.0
2017-Apr-14 23:52N 18°02' W 063°05'0 0.0
2017-Apr-14 23:22N 18°02' W 063°05'0 0.0
2017-Apr-14 22:55N 18°02' W 063°05'0 0.0
2017-Apr-14 22:25N 18°02' W 063°05'0 0.0
2017-Apr-14 21:55N 18°02' W 063°05'0 0.0
2017-Apr-14 21:25N 18°02' W 063°05'0 0.0
2017-Apr-14 20:55N 18°02' W 063°05'0 0.0
2017-Apr-14 20:25N 18°02' W 063°05'0 0.0
2017-Apr-14 19:58N 18°02' W 063°05'0 0.0
2017-Apr-14 19:28N 18°02' W 063°05'0 0.0
2017-Apr-14 18:58N 18°02' W 063°05'0 0.0
2017-Apr-14 18:28N 18°02' W 063°05'0 0.0
2017-Apr-14 17:58N 18°02' W 063°05'0 0.0
2017-Apr-14 17:28N 18°02' W 063°05'0 0.0
2017-Apr-14 16:58N 18°02' W 063°05'0 0.0
2017-Apr-14 16:28N 18°02' W 063°05'0 0.0
2017-Apr-14 15:58N 18°02' W 063°05'0 0.0
2017-Apr-14 15:28N 18°02' W 063°05'0 0.0
2017-Apr-14 14:58N 18°02' W 063°05'0 0.0
2017-Apr-14 13:58N 18°02' W 063°05'0 0.0
2017-Apr-14 13:28N 18°02' W 063°05'0 0.0
2017-Apr-14 12:49N 18°02' W 063°05'0 0.0
2017-Apr-14 12:19N 18°02' W 063°05'0 0.0
2017-Apr-14 11:49N 18°02' W 063°05'0 0.0
2017-Apr-14 11:22N 18°02' W 063°05'0 0.0
2017-Apr-14 10:52N 18°02' W 063°05'0 0.0
2017-Apr-14 10:31N 18°02' W 063°05'0 0.0
2017-Apr-14 09:52N 18°02' W 063°05'0 0.0
2017-Apr-14 09:22N 18°02' W 063°05'0 0.0
2017-Apr-14 08:52N 18°02' W 063°05'0 0.0
2017-Apr-14 08:25N 18°02' W 063°05'0 0.0
2017-Apr-14 07:55N 18°02' W 063°05'0 0.0
2017-Apr-14 07:25N 18°02' W 063°05'0 0.0
2017-Apr-14 06:55N 18°02' W 063°05'0 0.0
2017-Apr-14 06:25N 18°02' W 063°05'0 0.0
2017-Apr-14 05:58N 18°02' W 063°05'0 0.0
2017-Apr-14 05:28N 18°02' W 063°05'0 0.0
2017-Apr-14 04:58N 18°02' W 063°05'0 0.0
2017-Apr-14 04:13N 18°02' W 063°05'0 0.0
2017-Apr-14 03:58N 18°02' W 063°05'0 0.0
2017-Apr-14 03:27N 18°02' W 063°05'0 0.0
2017-Apr-14 02:55N 18°02' W 063°05'0 0.0
2017-Apr-14 02:30N 18°02' W 063°05'0 0.0
2017-Apr-14 02:00N 18°02' W 063°05'0 0.0
2017-Apr-14 01:28N 18°02' W 063°05'0 0.0
2017-Apr-14 01:01N 18°02' W 063°05'0 0.0
2017-Apr-14 00:31N 18°02' W 063°05'0 0.0
2017-Apr-13 23:58N 18°02' W 063°05'0 0.0
2017-Apr-13 23:30N 18°02' W 063°05'0 0.0
2017-Apr-13 22:49N 18°02' W 063°05'0 0.0
2017-Apr-13 22:19N 18°02' W 063°05'0 0.0
2017-Apr-13 21:49N 18°02' W 063°05'0 0.0
2017-Apr-13 21:30N 18°02' W 063°05'0 0.0
2017-Apr-13 20:52N 18°02' W 063°05'0 0.0
2017-Apr-13 20:21N 18°02' W 063°05'0 0.0
2017-Apr-13 19:52N 18°02' W 063°05'0 0.0
2017-Apr-13 19:22N 18°02' W 063°05'  

Dump ship's entire track history